createdAt,value
2019-05-02T00:00:31.150Z,11.99
2019-05-02T00:01:31.070Z,11.90
2019-05-02T00:02:30.990Z,12.00
2019-05-02T00:03:30.910Z,11.97
2019-05-02T00:04:30.824Z,11.88
2019-05-02T00:05:32.135Z,11.90
2019-05-02T00:06:30.666Z,11.81
2019-05-02T00:07:30.581Z,11.84
2019-05-02T00:08:33.156Z,11.83
2019-05-02T00:09:33.311Z,11.75
2019-05-02T00:10:30.337Z,11.77
2019-05-02T00:11:30.253Z,11.72
2019-05-02T00:12:37.334Z,11.75
2019-05-02T00:14:34.462Z,11.70
2019-05-02T00:15:38.253Z,11.78
2019-05-02T00:17:38.657Z,11.83
2019-05-02T00:18:39.043Z,11.80
2019-05-02T00:20:42.866Z,11.72
2019-05-02T00:21:43.191Z,11.81
2019-05-02T00:23:36.002Z,11.84
2019-05-02T00:24:39.185Z,11.88
2019-05-02T00:26:39.722Z,11.90
2019-05-02T00:27:39.630Z,11.84
2019-05-02T00:29:43.925Z,11.81
2019-05-02T00:30:43.830Z,11.78
2019-05-02T00:32:48.115Z,11.84
2019-05-02T00:33:48.029Z,11.80
2019-05-02T00:34:47.948Z,11.78
2019-05-02T00:35:47.865Z,11.83
2019-05-02T00:36:47.782Z,11.80
2019-05-02T00:37:47.701Z,11.75
2019-05-02T00:38:47.620Z,11.70
2019-05-02T00:39:49.183Z,11.75
2019-05-02T00:40:47.453Z,11.72
2019-05-02T00:41:47.369Z,11.66
2019-05-02T00:42:47.291Z,11.73
2019-05-02T00:43:47.211Z,11.77
2019-05-02T00:44:48.243Z,11.75
2019-05-02T00:45:47.047Z,11.69
2019-05-02T00:46:46.966Z,11.77
2019-05-02T00:47:47.766Z,11.66
2019-05-02T00:48:46.801Z,11.65
2019-05-02T00:49:46.719Z,11.70
2019-05-02T00:50:50.942Z,11.63
2019-05-02T00:51:46.556Z,11.60
2019-05-02T00:52:46.476Z,11.57
2019-05-02T00:53:48.408Z,11.54
2019-05-02T00:54:46.312Z,11.54
2019-05-02T00:55:46.230Z,11.57
2019-05-02T00:56:46.146Z,11.59
2019-05-02T00:57:46.062Z,11.60
2019-05-02T00:58:45.986Z,11.57
2019-05-02T00:59:45.901Z,11.59
2019-05-02T01:00:48.623Z,11.59
2019-05-02T01:01:45.736Z,11.60
2019-05-02T01:02:45.656Z,11.59
2019-05-02T01:03:47.194Z,11.51
2019-05-02T01:04:45.491Z,11.45
2019-05-02T01:05:45.411Z,11.51
2019-05-02T01:06:49.394Z,11.45
2019-05-02T01:07:45.243Z,11.48
2019-05-02T01:08:45.167Z,11.50
2019-05-02T01:09:46.778Z,11.48
2019-05-02T01:10:45.002Z,11.44
2019-05-02T01:11:44.916Z,11.47
2019-05-02T01:12:46.187Z,11.45
2019-05-02T01:13:44.749Z,11.50
2019-05-02T01:14:44.676Z,11.40
2019-05-02T01:15:45.936Z,11.48
2019-05-02T01:16:44.504Z,11.45
2019-05-02T01:17:44.425Z,11.29
2019-05-02T01:18:44.339Z,11.35
2019-05-02T01:19:47.223Z,11.27
2019-05-02T01:20:44.177Z,11.37
2019-05-02T01:21:44.093Z,11.32
2019-05-02T01:22:47.057Z,11.19
2019-05-02T01:23:43.932Z,11.22
2019-05-02T01:24:43.850Z,11.25
2019-05-02T01:25:47.385Z,11.22
2019-05-02T01:26:43.683Z,11.18
2019-05-02T01:27:43.608Z,11.19
2019-05-02T01:28:43.518Z,11.25
2019-05-02T01:29:43.439Z,11.14
2019-05-02T01:30:43.883Z,11.17
2019-05-02T01:31:43.271Z,11.19
2019-05-02T01:32:43.191Z,11.18
2019-05-02T01:33:43.630Z,11.12
2019-05-02T01:34:43.024Z,11.19
2019-05-02T01:35:42.942Z,11.26
2019-05-02T01:36:42.862Z,11.19
2019-05-02T01:37:42.783Z,11.10
2019-05-02T01:38:42.695Z,11.02
2019-05-02T01:39:43.968Z,11.00
2019-05-02T01:40:42.533Z,10.96
2019-05-02T01:41:42.450Z,10.93
2019-05-02T01:42:44.432Z,10.90
2019-05-02T01:43:42.284Z,11.00
2019-05-02T01:44:42.199Z,11.02
2019-05-02T01:45:46.602Z,10.99
2019-05-02T01:46:42.034Z,11.12
2019-05-02T01:47:41.955Z,11.08
2019-05-02T01:48:45.633Z,11.14
2019-05-02T01:49:41.788Z,11.02
2019-05-02T01:50:41.710Z,10.96
2019-05-02T01:51:47.024Z,10.93
2019-05-02T01:52:41.542Z,10.90
2019-05-02T01:53:41.457Z,10.93
2019-05-02T01:54:45.730Z,11.00
2019-05-02T01:55:41.294Z,10.93
2019-05-02T01:56:41.209Z,11.00
2019-05-02T01:57:44.788Z,10.94
2019-05-02T01:58:41.048Z,10.97
2019-05-02T01:59:40.964Z,10.92
2019-05-02T02:00:44.702Z,10.97
2019-05-02T02:01:40.798Z,11.02
2019-05-02T02:02:40.717Z,10.99
2019-05-02T02:03:45.533Z,11.02
2019-05-02T02:04:40.550Z,10.96
2019-05-02T02:05:40.469Z,10.90
2019-05-02T02:06:43.379Z,10.93
2019-05-02T02:07:40.302Z,11.04
2019-05-02T02:08:40.245Z,10.90
2019-05-02T02:09:44.145Z,10.96
2019-05-02T02:10:40.056Z,10.89
2019-05-02T02:11:39.975Z,10.94
2019-05-02T02:12:42.987Z,10.90
2019-05-02T02:13:39.810Z,10.94
2019-05-02T02:14:39.730Z,10.87
2019-05-02T02:15:39.646Z,10.97
2019-05-02T02:16:40.482Z,10.97
2019-05-02T02:17:39.478Z,10.99
2019-05-02T02:18:39.396Z,10.93
2019-05-02T02:19:40.643Z,10.99
2019-05-02T02:20:39.228Z,10.93
2019-05-02T02:21:39.147Z,10.82
2019-05-02T02:22:40.995Z,10.82
2019-05-02T02:23:38.979Z,10.87
2019-05-02T02:24:38.900Z,10.84
2019-05-02T02:25:38.817Z,10.84
2019-05-02T02:26:38.732Z,10.82
2019-05-02T02:27:38.654Z,10.92
2019-05-02T02:28:38.569Z,10.82
2019-05-02T02:29:39.089Z,10.86
2019-05-02T02:30:38.405Z,10.92
2019-05-02T02:31:39.463Z,10.79
2019-05-02T02:32:38.236Z,10.82
2019-05-02T02:33:41.213Z,10.87
2019-05-02T02:34:38.073Z,10.82
2019-05-02T02:36:37.908Z,10.79
2019-05-02T02:37:37.826Z,10.81
2019-05-02T02:38:37.735Z,10.81
2019-05-02T02:39:37.660Z,10.82
2019-05-02T02:40:37.578Z,10.78
2019-05-02T02:41:37.496Z,10.86
2019-05-02T02:42:37.413Z,10.81
2019-05-02T02:43:37.329Z,10.84
2019-05-02T02:44:39.902Z,10.90
2019-05-02T02:45:37.162Z,10.89
2019-05-02T02:46:38.588Z,10.84
2019-05-02T02:47:36.996Z,10.82
2019-05-02T02:48:40.654Z,10.90
2019-05-02T02:49:36.836Z,10.93
2019-05-02T02:50:42.829Z,10.94
2019-05-02T02:51:36.666Z,10.96
2019-05-02T02:52:37.953Z,10.90
2019-05-02T02:53:36.501Z,10.93
2019-05-02T02:54:43.014Z,10.87
2019-05-02T02:55:36.332Z,10.82
2019-05-02T02:56:40.452Z,10.87
2019-05-02T02:57:36.167Z,10.89
2019-05-02T02:58:44.565Z,10.78
2019-05-02T02:59:36.003Z,10.74
2019-05-02T03:00:41.444Z,10.72
2019-05-02T03:01:35.838Z,10.76
2019-05-02T03:02:35.760Z,10.68
2019-05-02T03:03:35.953Z,10.67
2019-05-02T03:04:35.590Z,10.56
2019-05-02T03:05:35.507Z,10.57
2019-05-02T03:06:38.396Z,10.59
2019-05-02T03:07:35.341Z,10.60
2019-05-02T03:08:44.643Z,10.56
2019-05-02T03:09:35.178Z,10.53
2019-05-02T03:10:39.993Z,10.57
2019-05-02T03:11:35.013Z,10.53
2019-05-02T03:12:36.158Z,10.41
2019-05-02T03:13:50.947Z,10.49
2019-05-02T03:14:41.125Z,10.51
2019-05-02T03:15:34.682Z,10.48
2019-05-02T03:16:34.610Z,10.53
2019-05-02T03:17:34.516Z,10.51
2019-05-02T03:18:40.706Z,10.44
2019-05-02T03:19:34.351Z,10.44
2019-05-02T03:20:40.134Z,10.38
2019-05-02T03:21:34.186Z,10.31
2019-05-02T03:22:40.757Z,10.30
2019-05-02T03:23:34.017Z,10.40
2019-05-02T03:24:36.540Z,10.30
2019-05-02T03:25:49.967Z,10.31
2019-05-02T03:26:33.773Z,10.34
2019-05-02T03:27:37.520Z,10.35
2019-05-02T03:28:33.606Z,10.42
2019-05-02T03:29:41.407Z,10.35
2019-05-02T03:30:37.203Z,10.44
2019-05-02T03:31:33.381Z,10.33
2019-05-02T03:32:35.947Z,10.42
2019-05-02T03:33:52.190Z,10.31
2019-05-02T03:34:47.169Z,10.38
2019-05-02T03:35:42.550Z,10.41
2019-05-02T03:36:36.456Z,10.44
2019-05-02T03:37:32.863Z,10.34
2019-05-02T03:38:35.267Z,10.38
2019-05-02T03:39:32.717Z,10.31
2019-05-02T03:40:39.194Z,10.38
2019-05-02T03:41:32.525Z,10.42
2019-05-02T03:42:43.758Z,10.33
2019-05-02T03:43:32.364Z,10.33
2019-05-02T03:44:32.320Z,10.37
2019-05-02T03:45:39.956Z,10.23
2019-05-02T03:46:32.110Z,10.34
2019-05-02T03:47:37.023Z,10.26
2019-05-02T03:48:31.949Z,10.31
2019-05-02T03:49:31.864Z,10.23
2019-05-02T03:50:34.916Z,10.31
2019-05-02T03:51:31.699Z,10.26
2019-05-02T03:52:36.800Z,10.23
2019-05-02T03:53:31.529Z,10.26
2019-05-02T03:54:31.446Z,10.33
2019-05-02T03:55:33.884Z,10.31
2019-05-02T03:56:31.281Z,10.19
2019-05-02T03:57:33.440Z,10.25
2019-05-02T03:58:31.113Z,10.28
2019-05-02T03:59:38.917Z,10.30
2019-05-02T04:00:30.952Z,10.30
2019-05-02T04:01:34.547Z,10.34
2019-05-02T04:02:30.782Z,10.23
2019-05-02T04:03:34.022Z,10.25
2019-05-02T04:04:30.618Z,10.25
2019-05-02T04:05:33.718Z,10.30
2019-05-02T04:06:30.453Z,10.25
2019-05-02T04:07:39.614Z,10.17
2019-05-02T04:08:30.284Z,10.16
2019-05-02T04:09:32.115Z,10.22
2019-05-02T04:10:30.118Z,10.20
2019-05-02T04:11:38.348Z,10.31
2019-05-02T04:12:32.796Z,10.31
2019-05-02T04:13:35.466Z,10.17
2019-05-02T04:14:37.819Z,10.25
2019-05-02T04:15:35.104Z,10.17
2019-05-02T04:16:29.621Z,10.09
2019-05-02T04:17:35.274Z,10.05
2019-05-02T04:18:29.452Z,10.13
2019-05-02T04:19:34.791Z,10.07
2019-05-02T04:20:29.284Z,10.04
2019-05-02T04:21:29.198Z,10.09
2019-05-02T04:22:29.119Z,10.02
2019-05-02T04:23:29.918Z,9.83
2019-05-02T04:24:28.954Z,9.83
2019-05-02T04:25:33.968Z,9.73
2019-05-02T04:26:28.786Z,9.74
2019-05-02T04:27:34.078Z,9.69
2019-05-02T04:28:28.620Z,9.69
2019-05-02T04:29:31.205Z,9.74
2019-05-02T04:30:28.453Z,9.76
2019-05-02T04:31:31.718Z,9.66
2019-05-02T04:32:28.286Z,9.66
2019-05-02T04:33:29.197Z,9.55
2019-05-02T04:34:28.118Z,9.48
2019-05-02T04:35:28.806Z,9.47
2019-05-02T04:36:27.955Z,9.50
2019-05-02T04:37:27.870Z,9.50
2019-05-02T04:38:39.282Z,9.43
2019-05-02T04:39:28.595Z,9.47
2019-05-02T04:40:28.331Z,9.48
2019-05-02T04:41:30.713Z,9.43
2019-05-02T04:42:29.387Z,9.46
2019-05-02T04:43:28.695Z,9.39
2019-05-02T04:44:32.301Z,9.44
2019-05-02T04:45:38.438Z,9.37
2019-05-02T04:46:30.971Z,9.40
2019-05-02T04:47:29.088Z,9.36
2019-05-02T04:48:28.474Z,9.32
2019-05-02T04:49:29.918Z,9.34
2019-05-02T04:50:29.482Z,9.39
2019-05-02T04:51:30.830Z,9.39
2019-05-02T04:52:28.820Z,9.34
2019-05-02T04:53:36.831Z,9.47
2019-05-02T04:54:31.839Z,9.39
2019-05-02T04:55:32.354Z,9.32
2019-05-02T04:56:28.323Z,9.56
2019-05-02T04:57:35.522Z,9.46
2019-05-02T04:58:29.598Z,9.48
2019-05-02T04:59:28.499Z,9.61
2019-05-02T05:00:28.389Z,9.65
2019-05-02T05:01:33.045Z,9.65
2019-05-02T05:02:34.225Z,9.76
2019-05-02T05:03:25.708Z,9.87
2019-05-02T05:04:27.632Z,9.82
2019-05-02T05:05:28.285Z,9.92
2019-05-02T05:06:27.591Z,9.92
2019-05-02T05:07:25.388Z,9.84
2019-05-02T05:08:26.505Z,9.89
2019-05-02T05:09:27.724Z,9.97
2019-05-02T05:10:27.588Z,9.86
2019-05-02T05:11:25.118Z,9.91
2019-05-02T05:12:24.961Z,9.80
2019-05-02T05:13:26.566Z,9.83
2019-05-02T05:14:24.798Z,9.83
2019-05-02T05:15:37.168Z,9.94
2019-05-02T05:16:24.629Z,9.97
2019-05-02T05:17:25.064Z,9.94
2019-05-02T05:18:24.466Z,9.92
2019-05-02T05:19:28.757Z,9.94
2019-05-02T05:20:24.310Z,9.95
2019-05-02T05:21:25.019Z,9.92
2019-05-02T05:22:24.136Z,9.92
2019-05-02T05:23:24.052Z,9.91
2019-05-02T05:24:24.997Z,9.91
2019-05-02T05:25:23.885Z,9.95
2019-05-02T05:26:23.804Z,10.05
2019-05-02T05:27:23.722Z,9.97
2019-05-02T05:28:23.638Z,10.02
2019-05-02T05:29:23.557Z,10.12
2019-05-02T05:30:23.475Z,10.13
2019-05-02T05:31:24.529Z,10.09
2019-05-02T05:32:23.306Z,10.13
2019-05-02T05:33:23.225Z,10.19
2019-05-02T05:34:28.532Z,10.17
2019-05-02T05:35:23.061Z,10.23
2019-05-02T05:36:29.266Z,10.19
2019-05-02T05:37:22.895Z,10.23
2019-05-02T05:38:27.491Z,10.26
2019-05-02T05:39:22.743Z,10.31
2019-05-02T05:40:27.543Z,10.46
2019-05-02T05:41:23.249Z,10.48
2019-05-02T05:42:23.467Z,10.46
2019-05-02T05:43:22.402Z,10.46
2019-05-02T05:44:23.291Z,10.48
2019-05-02T05:45:22.237Z,10.46
2019-05-02T05:46:22.156Z,10.41
2019-05-02T05:47:22.072Z,10.48
2019-05-02T05:48:21.991Z,10.53
2019-05-02T05:49:21.973Z,10.63
2019-05-02T05:50:21.822Z,10.67
2019-05-02T05:51:21.742Z,10.67
2019-05-02T05:52:21.662Z,10.72
2019-05-02T05:53:24.459Z,10.75
2019-05-02T05:54:21.494Z,10.81
2019-05-02T05:55:24.417Z,10.78
2019-05-02T05:56:21.328Z,10.84
2019-05-02T05:57:21.358Z,10.94
2019-05-02T05:58:21.188Z,11.00
2019-05-02T05:59:22.293Z,11.02
2019-05-02T06:00:23.174Z,10.97
2019-05-02T06:01:26.148Z,11.04
2019-05-02T06:02:20.842Z,11.15
2019-05-02T06:03:20.759Z,11.05
2019-05-02T06:04:24.012Z,11.08
2019-05-02T06:05:20.597Z,11.14
2019-05-02T06:06:23.150Z,11.07
2019-05-02T06:07:20.434Z,11.23
2019-05-02T06:08:20.354Z,11.17
2019-05-02T06:09:20.266Z,11.25
2019-05-02T06:10:20.185Z,11.23
2019-05-02T06:11:21.788Z,11.25
2019-05-02T06:12:20.023Z,11.26
2019-05-02T06:13:27.601Z,11.26
2019-05-02T06:15:24.253Z,11.33
2019-05-02T06:16:24.152Z,11.35
2019-05-02T06:18:28.548Z,11.44
2019-05-02T06:19:28.353Z,11.47
2019-05-02T06:21:32.677Z,11.44
2019-05-02T06:22:32.583Z,11.47
2019-05-02T06:24:25.856Z,11.54
2019-05-02T06:25:34.360Z,11.52
2019-05-02T06:27:30.534Z,11.57
2019-05-02T06:28:29.980Z,11.63
2019-05-02T06:30:34.295Z,11.69
2019-05-02T06:31:38.235Z,11.73
2019-05-02T06:33:38.506Z,11.77
2019-05-02T06:34:46.016Z,11.80
2019-05-02T06:36:42.741Z,11.78
2019-05-02T06:37:45.353Z,11.87
2019-05-02T06:39:46.942Z,11.99
2019-05-02T06:40:46.857Z,11.83
2019-05-02T06:42:52.181Z,11.97
2019-05-02T06:43:52.089Z,11.99
2019-05-02T06:45:56.411Z,11.95
2019-05-02T06:46:59.178Z,11.95
2019-05-02T06:49:00.621Z,12.06
2019-05-02T06:50:01.061Z,12.00
2019-05-02T06:52:04.861Z,12.06
2019-05-02T06:53:09.572Z,11.97
2019-05-02T06:55:09.076Z,12.07
2019-05-02T06:56:12.781Z,12.09
2019-05-02T06:58:13.273Z,11.99
2019-05-02T06:59:18.326Z,12.02
2019-05-02T07:01:21.400Z,11.97
2019-05-02T07:02:17.395Z,12.00
2019-05-02T07:04:10.642Z,12.17
2019-05-02T07:05:10.557Z,12.02
2019-05-02T07:07:14.878Z,12.18
2019-05-02T07:08:14.888Z,12.09
2019-05-02T07:10:20.014Z,12.17
2019-05-02T07:11:18.993Z,12.17
2019-05-02T07:13:23.316Z,12.13
2019-05-02T07:14:24.074Z,12.17
2019-05-02T07:16:37.850Z,12.25
2019-05-02T07:17:32.049Z,12.21
2019-05-02T07:19:31.749Z,12.31
2019-05-02T07:20:35.249Z,12.27
2019-05-02T07:22:38.826Z,12.35
2019-05-02T07:23:35.890Z,12.28
2019-05-02T07:25:43.937Z,12.36
2019-05-02T07:26:40.122Z,12.39
2019-05-02T07:28:45.517Z,12.39
2019-05-02T07:29:44.335Z,12.39
2019-05-02T07:31:48.895Z,12.37
2019-05-02T07:32:48.550Z,12.45
2019-05-02T07:34:52.361Z,12.49
2019-05-02T07:35:55.138Z,12.62
2019-05-02T07:37:56.580Z,12.49
2019-05-02T07:38:57.518Z,12.57
2019-05-02T07:41:00.798Z,12.67
2019-05-02T07:42:05.993Z,12.65
2019-05-02T07:43:56.252Z,12.64
2019-05-02T07:44:53.864Z,12.62
2019-05-02T07:47:02.494Z,12.64
2019-05-02T07:48:01.175Z,12.60
2019-05-02T07:50:05.271Z,12.73
2019-05-02T07:52:15.624Z,12.73
2019-05-02T07:53:15.556Z,12.78
2019-05-02T07:55:19.820Z,12.79
2019-05-02T07:56:19.736Z,12.86
2019-05-02T07:58:24.050Z,12.93
2019-05-02T07:59:25.180Z,12.94
2019-05-02T08:01:28.253Z,13.00
2019-05-02T08:02:28.177Z,13.01
2019-05-02T08:03:29.499Z,12.98
2019-05-02T08:04:27.996Z,13.00
2019-05-02T08:05:27.917Z,13.01
2019-05-02T08:06:35.126Z,12.98
2019-05-02T08:07:34.172Z,13.11
2019-05-02T08:08:29.854Z,13.12
2019-05-02T08:09:27.596Z,13.08
2019-05-02T08:10:27.517Z,13.09
2019-05-02T08:11:27.438Z,13.11
2019-05-02T08:12:27.357Z,13.12
2019-05-02T08:13:27.276Z,13.35
2019-05-02T08:14:29.324Z,13.22
2019-05-02T08:15:27.117Z,13.27
2019-05-02T08:16:27.570Z,13.27
2019-05-02T08:17:26.957Z,13.23
2019-05-02T08:18:30.248Z,13.28
2019-05-02T08:19:26.804Z,13.30
2019-05-02T08:20:26.721Z,13.33
2019-05-02T08:21:27.275Z,13.38
2019-05-02T08:22:26.562Z,13.31
2019-05-02T08:23:27.845Z,13.47
2019-05-02T08:24:26.400Z,13.46
2019-05-02T08:25:26.322Z,13.52
2019-05-02T08:26:26.241Z,13.49
2019-05-02T08:27:29.303Z,13.56
2019-05-02T08:28:26.079Z,13.59
2019-05-02T08:29:28.735Z,13.62
2019-05-02T08:30:25.924Z,13.71
2019-05-02T08:31:25.843Z,13.67
2019-05-02T08:32:25.761Z,13.65
2019-05-02T08:33:29.468Z,13.74
2019-05-02T08:34:25.619Z,13.77
2019-05-02T08:35:27.975Z,13.75
2019-05-02T08:36:25.449Z,13.81
2019-05-02T08:37:25.364Z,13.74
2019-05-02T08:38:25.294Z,13.75
2019-05-02T08:39:31.432Z,13.79
2019-05-02T08:40:25.129Z,13.79
2019-05-02T08:41:25.051Z,13.83
2019-05-02T08:42:27.851Z,13.87
2019-05-02T08:43:24.891Z,13.90
2019-05-02T08:44:24.808Z,13.93
2019-05-02T08:45:24.730Z,13.97
2019-05-02T08:46:24.659Z,14.05
2019-05-02T08:47:28.577Z,14.05
2019-05-02T08:48:24.522Z,14.14
2019-05-02T08:49:24.417Z,14.15
2019-05-02T08:50:27.199Z,14.23
2019-05-02T08:51:24.258Z,14.35
2019-05-02T08:52:24.180Z,14.26
2019-05-02T08:53:24.100Z,14.28
2019-05-02T08:54:28.028Z,14.33
2019-05-02T08:55:23.947Z,14.30
2019-05-02T08:56:23.868Z,14.30
2019-05-02T08:57:23.973Z,14.30
2019-05-02T08:58:23.703Z,14.32
2019-05-02T08:59:24.620Z,14.26
2019-05-02T09:00:23.550Z,14.26
2019-05-02T09:01:34.551Z,14.43
2019-05-02T09:02:25.897Z,14.37
2019-05-02T09:03:23.309Z,14.35
2019-05-02T09:04:24.158Z,14.48
2019-05-02T09:05:23.156Z,14.48
2019-05-02T09:06:24.136Z,14.50
2019-05-02T09:07:23.063Z,14.50
2019-05-02T09:08:22.921Z,14.51
2019-05-02T09:09:27.910Z,14.51
2019-05-02T09:10:22.760Z,14.69
2019-05-02T09:11:22.695Z,14.70
2019-05-02T09:12:22.986Z,14.66
2019-05-02T09:13:25.999Z,14.79
2019-05-02T09:14:22.451Z,14.85
2019-05-02T09:15:22.476Z,14.84
2019-05-02T09:16:28.653Z,14.84
2019-05-02T09:17:34.907Z,14.84
2019-05-02T09:18:25.334Z,14.99
2019-05-02T09:19:26.290Z,14.94
2019-05-02T09:20:23.662Z,15.02
2019-05-02T09:21:22.063Z,15.06
2019-05-02T09:22:22.195Z,15.18
2019-05-02T09:23:22.832Z,15.15
2019-05-02T09:24:23.907Z,15.10
2019-05-02T09:25:22.074Z,15.27
2019-05-02T09:26:33.236Z,15.19
2019-05-02T09:27:22.490Z,15.35
2019-05-02T09:28:22.475Z,15.29
2019-05-02T09:29:22.244Z,15.25
2019-05-02T09:30:22.718Z,15.35
2019-05-02T09:31:22.645Z,15.27
2019-05-02T09:32:22.763Z,15.27
2019-05-02T09:33:22.634Z,15.28
2019-05-02T09:34:25.008Z,15.28
2019-05-02T09:35:22.936Z,15.22
2019-05-02T09:36:22.628Z,15.25
2019-05-02T09:37:22.660Z,15.25
2019-05-02T09:38:22.200Z,15.28
2019-05-02T09:39:22.515Z,15.33
2019-05-02T09:40:22.218Z,15.37
2019-05-02T09:41:22.106Z,15.39
2019-05-02T09:42:21.714Z,15.40
2019-05-02T09:43:20.187Z,15.35
2019-05-02T09:44:20.110Z,15.36
2019-05-02T09:45:20.035Z,15.37
2019-05-02T09:46:21.707Z,15.42
2019-05-02T09:47:22.118Z,15.52
2019-05-02T09:48:22.725Z,15.54
2019-05-02T09:49:21.892Z,15.57
2019-05-02T09:50:26.671Z,15.65
2019-05-02T09:51:21.505Z,15.59
2019-05-02T09:52:19.552Z,15.64
2019-05-02T09:53:24.067Z,15.61
2019-05-02T09:54:19.341Z,15.59
2019-05-02T09:55:19.263Z,15.51
2019-05-02T09:56:19.187Z,15.55
2019-05-02T09:57:19.113Z,15.55
2019-05-02T09:58:21.384Z,15.57
2019-05-02T09:59:27.712Z,15.51
2019-05-02T10:00:18.878Z,15.55
2019-05-02T10:01:18.799Z,15.51
2019-05-02T10:02:18.725Z,15.54
2019-05-02T10:03:18.647Z,15.59
2019-05-02T10:04:18.572Z,15.64
2019-05-02T10:05:18.502Z,15.65
2019-05-02T10:06:18.450Z,15.67
2019-05-02T10:07:18.341Z,15.75
2019-05-02T10:08:18.262Z,15.72
2019-05-02T10:09:18.821Z,15.70
2019-05-02T10:10:18.108Z,15.72
2019-05-02T10:11:22.466Z,15.79
2019-05-02T10:12:17.962Z,15.84
2019-05-02T10:13:17.877Z,15.80
2019-05-02T10:14:17.797Z,15.76
2019-05-02T10:15:17.804Z,15.80
2019-05-02T10:16:18.014Z,15.76
2019-05-02T10:17:18.448Z,15.73
2019-05-02T10:18:19.678Z,15.73
2019-05-02T10:19:17.415Z,15.90
2019-05-02T10:20:17.342Z,15.92
2019-05-02T10:21:17.423Z,15.98
2019-05-02T10:22:17.189Z,16.04
2019-05-02T10:23:19.674Z,16.13
2019-05-02T10:24:17.078Z,16.12
2019-05-02T10:25:16.959Z,16.23
2019-05-02T10:26:20.048Z,16.26
2019-05-02T10:27:16.803Z,16.39
2019-05-02T10:28:16.731Z,16.35
2019-05-02T10:29:22.851Z,16.51
2019-05-02T10:30:16.614Z,16.54
2019-05-02T10:31:16.509Z,16.51
2019-05-02T10:32:16.806Z,16.56
2019-05-02T10:33:16.351Z,16.54
2019-05-02T10:34:17.769Z,16.54
2019-05-02T10:35:16.195Z,16.53
2019-05-02T10:36:19.821Z,16.64
2019-05-02T10:37:16.047Z,16.64
2019-05-02T10:38:19.414Z,16.64
2019-05-02T10:39:16.046Z,16.72
2019-05-02T10:40:17.260Z,16.74
2019-05-02T10:41:15.733Z,16.79
2019-05-02T10:42:15.653Z,16.81
2019-05-02T10:43:15.580Z,16.84
2019-05-02T10:44:15.506Z,16.78
2019-05-02T10:45:16.819Z,16.75
2019-05-02T10:46:15.354Z,16.78
2019-05-02T10:47:15.276Z,16.74
2019-05-02T10:48:24.837Z,16.74
2019-05-02T10:49:15.121Z,16.71
2019-05-02T10:50:15.049Z,16.72
2019-05-02T10:51:14.970Z,16.72
2019-05-02T10:52:14.899Z,16.75
2019-05-02T10:53:15.796Z,16.76
2019-05-02T10:54:14.744Z,16.90
2019-05-02T10:55:14.667Z,17.06
2019-05-02T10:56:14.597Z,17.16
2019-05-02T10:57:14.515Z,17.33
2019-05-02T10:58:14.447Z,17.41
2019-05-02T10:59:14.366Z,17.38
2019-05-02T11:00:14.289Z,17.57
2019-05-02T11:01:14.212Z,17.68
2019-05-02T11:02:14.137Z,17.78
2019-05-02T11:03:14.061Z,17.83
2019-05-02T11:04:13.986Z,17.87
2019-05-02T11:05:16.797Z,17.90
2019-05-02T11:06:13.837Z,17.89
2019-05-02T11:07:17.067Z,17.83
2019-05-02T11:08:13.685Z,17.83
2019-05-02T11:09:16.748Z,17.79
2019-05-02T11:10:13.534Z,17.85
2019-05-02T11:11:13.457Z,17.80
2019-05-02T11:12:16.472Z,17.82
2019-05-02T11:13:13.312Z,17.79
2019-05-02T11:14:13.234Z,17.78
2019-05-02T11:15:13.153Z,17.82
2019-05-02T11:16:13.081Z,17.80
2019-05-02T11:17:16.530Z,17.79
2019-05-02T11:18:12.929Z,17.70
2019-05-02T11:19:13.270Z,17.74
2019-05-02T11:20:12.782Z,17.72
2019-05-02T11:21:12.706Z,17.71
2019-05-02T11:22:12.631Z,17.86
2019-05-02T11:23:12.818Z,17.92
2019-05-02T11:24:14.377Z,17.94
2019-05-02T11:25:12.406Z,18.03
2019-05-02T11:26:14.509Z,18.01
2019-05-02T11:27:12.784Z,18.05
2019-05-02T11:28:12.403Z,18.03
2019-05-02T11:29:12.229Z,18.03
2019-05-02T11:30:12.437Z,18.18
2019-05-02T11:31:12.447Z,18.08
2019-05-02T11:32:12.765Z,18.05
2019-05-02T11:33:13.438Z,18.07
2019-05-02T11:34:12.311Z,18.20
2019-05-02T11:35:12.210Z,18.00
2019-05-02T11:36:13.623Z,18.10
2019-05-02T11:37:12.111Z,18.18
2019-05-02T11:38:13.580Z,18.19
2019-05-02T11:39:20.567Z,18.23
2019-05-02T11:40:12.868Z,18.25
2019-05-02T11:41:11.950Z,18.29
2019-05-02T11:42:12.462Z,18.35
2019-05-02T11:43:11.569Z,18.38
2019-05-02T11:44:12.090Z,18.37
2019-05-02T11:45:12.116Z,18.40
2019-05-02T11:46:12.097Z,18.41
2019-05-02T11:47:12.636Z,18.56
2019-05-02T11:48:11.933Z,18.58
2019-05-02T11:49:12.215Z,18.62
2019-05-02T11:50:11.901Z,18.70
2019-05-02T11:51:12.707Z,18.78
2019-05-02T11:52:11.872Z,18.84
2019-05-02T11:53:25.492Z,18.90
2019-05-02T11:54:12.931Z,19.21
2019-05-02T11:55:10.291Z,19.26
2019-05-02T11:56:11.627Z,19.30
2019-05-02T11:57:11.697Z,19.37
2019-05-02T11:58:12.557Z,19.29
2019-05-02T11:59:12.922Z,19.26
2019-05-02T12:00:09.909Z,19.22
2019-05-02T12:01:09.833Z,19.19
2019-05-02T12:02:17.420Z,19.19
2019-05-02T12:03:09.873Z,19.21
2019-05-02T12:04:12.982Z,19.24
2019-05-02T12:05:09.488Z,19.31
2019-05-02T12:06:14.066Z,19.40
2019-05-02T12:07:09.525Z,19.27
2019-05-02T12:08:09.741Z,19.31
2019-05-02T12:09:09.214Z,19.36
2019-05-02T12:10:09.135Z,19.33
2019-05-02T12:11:13.237Z,19.29
2019-05-02T12:12:08.986Z,19.39
2019-05-02T12:13:12.035Z,19.56
2019-05-02T12:14:08.855Z,19.81
2019-05-02T12:15:08.781Z,19.64
2019-05-02T12:16:08.708Z,19.62
2019-05-02T12:17:08.643Z,19.56
2019-05-02T12:18:08.572Z,19.52
2019-05-02T12:19:12.129Z,19.34
2019-05-02T12:20:08.428Z,19.29
2019-05-02T12:21:08.358Z,19.18
2019-05-02T12:22:12.921Z,19.18
2019-05-02T12:23:09.176Z,19.07
2019-05-02T12:24:08.144Z,19.00
2019-05-02T12:25:08.072Z,19.00
2019-05-02T12:26:08.001Z,18.98
2019-05-02T12:27:07.939Z,18.89
2019-05-02T12:28:07.858Z,18.80
2019-05-02T12:29:07.779Z,18.88
2019-05-02T12:30:07.708Z,18.88
2019-05-02T12:31:08.069Z,18.86
2019-05-02T12:32:07.588Z,18.84
2019-05-02T12:33:07.509Z,18.99
2019-05-02T12:34:07.465Z,19.09
2019-05-02T12:35:07.362Z,19.56
2019-05-02T12:36:07.275Z,19.81
2019-05-02T12:37:07.222Z,19.74
2019-05-02T12:38:07.124Z,19.76
2019-05-02T12:39:07.057Z,19.55
2019-05-02T12:40:06.996Z,19.62
2019-05-02T12:41:19.511Z,19.70
2019-05-02T12:42:07.090Z,20.14
2019-05-02T12:43:06.767Z,20.00
2019-05-02T12:44:06.704Z,19.99
2019-05-02T12:45:06.691Z,19.82
2019-05-02T12:46:06.594Z,20.14
2019-05-02T12:47:06.492Z,19.94
2019-05-02T12:48:06.416Z,19.94
2019-05-02T12:49:06.343Z,19.85
2019-05-02T12:50:06.269Z,19.76
2019-05-02T12:51:06.260Z,20.40
2019-05-02T12:52:06.145Z,20.72
2019-05-02T12:53:06.068Z,20.62
2019-05-02T12:54:06.006Z,20.47
2019-05-02T12:55:05.937Z,20.36
2019-05-02T12:56:05.850Z,20.24
2019-05-02T12:57:05.775Z,20.21
2019-05-02T12:58:05.707Z,20.02
2019-05-02T12:59:05.639Z,19.91
2019-05-02T13:00:05.590Z,19.73
2019-05-02T13:01:05.513Z,19.67
2019-05-02T13:02:05.423Z,19.63
2019-05-02T13:03:05.444Z,19.54
2019-05-02T13:04:05.293Z,19.47
2019-05-02T13:05:05.257Z,19.37
2019-05-02T13:06:05.153Z,19.29
2019-05-02T13:07:05.130Z,19.31
2019-05-02T13:08:05.039Z,19.21
2019-05-02T13:09:04.932Z,19.08
2019-05-02T13:10:04.847Z,19.09
2019-05-02T13:11:06.642Z,18.98
2019-05-02T13:12:04.748Z,19.04
2019-05-02T13:13:04.649Z,18.93
2019-05-02T13:14:04.610Z,18.90
2019-05-02T13:15:04.490Z,18.96
2019-05-02T13:16:04.534Z,18.89
2019-05-02T13:17:05.735Z,18.81
2019-05-02T13:18:04.271Z,18.89
2019-05-02T13:19:06.153Z,18.80
2019-05-02T13:20:04.297Z,18.81
2019-05-02T13:21:08.138Z,18.83
2019-05-02T13:22:03.995Z,18.83
2019-05-02T13:23:03.943Z,18.70
2019-05-02T13:24:07.223Z,18.73
2019-05-02T13:25:03.786Z,18.71
2019-05-02T13:26:10.221Z,18.68
2019-05-02T13:27:04.413Z,18.70
2019-05-02T13:28:03.520Z,18.60
2019-05-02T13:29:03.437Z,18.71
2019-05-02T13:30:03.517Z,18.63
2019-05-02T13:31:03.294Z,18.58
2019-05-02T13:32:03.213Z,18.58
2019-05-02T13:33:03.139Z,18.52
2019-05-02T13:34:06.404Z,18.52
2019-05-02T13:35:02.990Z,18.60
2019-05-02T13:36:02.914Z,18.59
2019-05-02T13:37:03.014Z,18.55
2019-05-02T13:38:02.932Z,18.53
2019-05-02T13:39:02.687Z,18.55
2019-05-02T13:40:02.786Z,18.56